sensor_id;sensor_type;location;lat;lon;timestamp;P1;durP1;ratioP1;P2;durP2;ratioP2
26502;SDS011;14177;51.520;6.764;2024-02-04T00:02:18;9.70;;;6.18;;
26502;SDS011;14177;51.520;6.764;2024-02-04T00:04:50;11.45;;;7.28;;
26502;SDS011;14177;51.520;6.764;2024-02-04T00:07:18;10.02;;;6.05;;
26502;SDS011;14177;51.520;6.764;2024-02-04T00:09:45;8.35;;;5.55;;
26502;SDS011;14177;51.520;6.764;2024-02-04T00:12:12;8.93;;;5.57;;
26502;SDS011;14177;51.520;6.764;2024-02-04T00:14:39;11.18;;;5.35;;
26502;SDS011;14177;51.520;6.764;2024-02-04T00:17:06;7.57;;;5.10;;
26502;SDS011;14177;51.520;6.764;2024-02-04T00:19:33;6.72;;;4.55;;
26502;SDS011;14177;51.520;6.764;2024-02-04T00:22:01;6.72;;;4.25;;
26502;SDS011;14177;51.520;6.764;2024-02-04T00:24:28;6.85;;;4.32;;
26502;SDS011;14177;51.520;6.764;2024-02-04T00:26:55;9.25;;;3.80;;
26502;SDS011;14177;51.520;6.764;2024-02-04T00:29:22;5.28;;;3.08;;
26502;SDS011;14177;51.520;6.764;2024-02-04T00:31:49;4.35;;;2.45;;
26502;SDS011;14177;51.520;6.764;2024-02-04T00:34:16;4.50;;;3.00;;
26502;SDS011;14177;51.520;6.764;2024-02-04T00:36:43;4.75;;;2.92;;
26502;SDS011;14177;51.520;6.764;2024-02-04T00:39:10;3.90;;;2.65;;
26502;SDS011;14177;51.520;6.764;2024-02-04T00:41:37;3.75;;;2.60;;
26502;SDS011;14177;51.520;6.764;2024-02-04T00:44:04;4.78;;;2.60;;
26502;SDS011;14177;51.520;6.764;2024-02-04T00:46:31;5.32;;;2.70;;
26502;SDS011;14177;51.520;6.764;2024-02-04T00:48:58;4.20;;;2.67;;
26502;SDS011;14177;51.520;6.764;2024-02-04T00:51:26;4.22;;;3.03;;
26502;SDS011;14177;51.520;6.764;2024-02-04T00:53:52;4.95;;;3.30;;
26502;SDS011;14177;51.520;6.764;2024-02-04T00:56:22;4.35;;;3.13;;
26502;SDS011;14177;51.520;6.764;2024-02-04T00:58:49;4.95;;;3.03;;
26502;SDS011;14177;51.520;6.764;2024-02-04T01:01:15;5.70;;;3.42;;
26502;SDS011;14177;51.520;6.764;2024-02-04T01:03:43;4.68;;;3.25;;
26502;SDS011;14177;51.520;6.764;2024-02-04T01:06:10;4.65;;;3.13;;
26502;SDS011;14177;51.520;6.764;2024-02-04T01:08:37;5.30;;;3.10;;
26502;SDS011;14177;51.520;6.764;2024-02-04T01:11:04;5.20;;;3.10;;
26502;SDS011;14177;51.520;6.764;2024-02-04T01:13:32;5.50;;;3.20;;
26502;SDS011;14177;51.520;6.764;2024-02-04T01:15:59;4.55;;;3.10;;
26502;SDS011;14177;51.520;6.764;2024-02-04T01:18:26;4.35;;;3.20;;
26502;SDS011;14177;51.520;6.764;2024-02-04T01:20:53;4.53;;;3.25;;
26502;SDS011;14177;51.520;6.764;2024-02-04T01:23:20;4.57;;;3.28;;
26502;SDS011;14177;51.520;6.764;2024-02-04T01:25:47;4.30;;;3.28;;
26502;SDS011;14177;51.520;6.764;2024-02-04T01:28:14;5.80;;;3.80;;
26502;SDS011;14177;51.520;6.764;2024-02-04T01:30:41;5.75;;;3.78;;
26502;SDS011;14177;51.520;6.764;2024-02-04T01:33:08;4.35;;;3.38;;
26502;SDS011;14177;51.520;6.764;2024-02-04T01:35:35;4.30;;;3.20;;
26502;SDS011;14177;51.520;6.764;2024-02-04T01:38:02;6.13;;;3.25;;
26502;SDS011;14177;51.520;6.764;2024-02-04T01:40:29;4.32;;;3.10;;
26502;SDS011;14177;51.520;6.764;2024-02-04T01:42:56;6.25;;;4.10;;
26502;SDS011;14177;51.520;6.764;2024-02-04T01:45:23;4.82;;;3.13;;
26502;SDS011;14177;51.520;6.764;2024-02-04T01:47:51;4.03;;;3.33;;
26502;SDS011;14177;51.520;6.764;2024-02-04T01:50:20;4.53;;;3.17;;
26502;SDS011;14177;51.520;6.764;2024-02-04T01:52:48;5.85;;;3.80;;
26502;SDS011;14177;51.520;6.764;2024-02-04T01:55:17;3.22;;;2.72;;
26502;SDS011;14177;51.520;6.764;2024-02-04T01:57:45;4.60;;;3.35;;
26502;SDS011;14177;51.520;6.764;2024-02-04T02:00:15;5.93;;;3.30;;
26502;SDS011;14177;51.520;6.764;2024-02-04T02:02:44;6.22;;;3.60;;
26502;SDS011;14177;51.520;6.764;2024-02-04T02:05:15;4.75;;;3.55;;
26502;SDS011;14177;51.520;6.764;2024-02-04T02:07:42;4.65;;;3.47;;
26502;SDS011;14177;51.520;6.764;2024-02-04T02:10:12;5.50;;;3.75;;
26502;SDS011;14177;51.520;6.764;2024-02-04T02:12:41;6.18;;;4.43;;
26502;SDS011;14177;51.520;6.764;2024-02-04T02:15:20;5.07;;;3.60;;
26502;SDS011;14177;51.520;6.764;2024-02-04T02:17:57;6.97;;;4.10;;
26502;SDS011;14177;51.520;6.764;2024-02-04T02:23:17;8.07;;;3.72;;
26502;SDS011;14177;51.520;6.764;2024-02-04T02:25:49;5.80;;;4.40;;
26502;SDS011;14177;51.520;6.764;2024-02-04T02:28:18;6.28;;;4.18;;
26502;SDS011;14177;51.520;6.764;2024-02-04T02:30:44;7.47;;;4.70;;
26502;SDS011;14177;51.520;6.764;2024-02-04T02:33:12;7.72;;;5.18;;
26502;SDS011;14177;51.520;6.764;2024-02-04T02:35:39;7.35;;;4.80;;
26502;SDS011;14177;51.520;6.764;2024-02-04T02:38:20;9.13;;;5.50;;
26502;SDS011;14177;51.520;6.764;2024-02-04T02:40:58;8.00;;;5.18;;
26502;SDS011;14177;51.520;6.764;2024-02-04T02:43:30;10.35;;;5.53;;
26502;SDS011;14177;51.520;6.764;2024-02-04T02:46:00;8.82;;;5.38;;
26502;SDS011;14177;51.520;6.764;2024-02-04T02:48:28;11.60;;;5.88;;
26502;SDS011;14177;51.520;6.764;2024-02-04T02:50:56;8.30;;;5.85;;
26502;SDS011;14177;51.520;6.764;2024-02-04T02:53:24;9.27;;;5.38;;
26502;SDS011;14177;51.520;6.764;2024-02-04T02:55:51;9.43;;;6.18;;
26502;SDS011;14177;51.520;6.764;2024-02-04T02:58:18;10.32;;;6.05;;
26502;SDS011;14177;51.520;6.764;2024-02-04T03:00:45;12.35;;;6.75;;
26502;SDS011;14177;51.520;6.764;2024-02-04T03:03:13;12.90;;;6.50;;
26502;SDS011;14177;51.520;6.764;2024-02-04T03:05:40;9.30;;;5.60;;
26502;SDS011;14177;51.520;6.764;2024-02-04T03:08:08;9.75;;;6.32;;
26502;SDS011;14177;51.520;6.764;2024-02-04T03:10:35;12.48;;;6.70;;
26502;SDS011;14177;51.520;6.764;2024-02-04T03:13:02;12.85;;;6.65;;
26502;SDS011;14177;51.520;6.764;2024-02-04T03:15:29;10.10;;;6.57;;
26502;SDS011;14177;51.520;6.764;2024-02-04T03:17:56;11.63;;;6.45;;
26502;SDS011;14177;51.520;6.764;2024-02-04T03:20:23;11.52;;;7.13;;
26502;SDS011;14177;51.520;6.764;2024-02-04T03:22:51;10.48;;;6.75;;
26502;SDS011;14177;51.520;6.764;2024-02-04T03:25:18;10.10;;;6.13;;
26502;SDS011;14177;51.520;6.764;2024-02-04T03:27:45;11.20;;;6.43;;
26502;SDS011;14177;51.520;6.764;2024-02-04T03:30:13;11.23;;;7.43;;
26502;SDS011;14177;51.520;6.764;2024-02-04T03:32:40;11.75;;;7.80;;
26502;SDS011;14177;51.520;6.764;2024-02-04T03:35:07;10.75;;;6.72;;
26502;SDS011;14177;51.520;6.764;2024-02-04T03:37:34;10.70;;;6.75;;
26502;SDS011;14177;51.520;6.764;2024-02-04T03:40:01;10.48;;;6.60;;
26502;SDS011;14177;51.520;6.764;2024-02-04T03:42:29;12.02;;;7.18;;
26502;SDS011;14177;51.520;6.764;2024-02-04T03:44:56;11.30;;;7.47;;
26502;SDS011;14177;51.520;6.764;2024-02-04T03:47:23;13.45;;;7.30;;
26502;SDS011;14177;51.520;6.764;2024-02-04T03:49:50;11.20;;;7.30;;
26502;SDS011;14177;51.520;6.764;2024-02-04T03:52:17;16.50;;;8.25;;
26502;SDS011;14177;51.520;6.764;2024-02-04T03:54:44;12.90;;;7.72;;
26502;SDS011;14177;51.520;6.764;2024-02-04T03:57:12;14.40;;;7.10;;
26502;SDS011;14177;51.520;6.764;2024-02-04T03:59:39;12.25;;;7.43;;
26502;SDS011;14177;51.520;6.764;2024-02-04T04:02:05;11.32;;;7.70;;
26502;SDS011;14177;51.520;6.764;2024-02-04T04:04:33;11.70;;;8.10;;
26502;SDS011;14177;51.520;6.764;2024-02-04T04:07:00;13.05;;;7.85;;
26502;SDS011;14177;51.520;6.764;2024-02-04T04:09:27;18.23;;;8.60;;
26502;SDS011;14177;51.520;6.764;2024-02-04T04:11:55;12.40;;;7.07;;
26502;SDS011;14177;51.520;6.764;2024-02-04T04:14:22;12.57;;;8.20;;
26502;SDS011;14177;51.520;6.764;2024-02-04T04:16:49;12.93;;;7.70;;
26502;SDS011;14177;51.520;6.764;2024-02-04T04:19:15;14.32;;;7.95;;
26502;SDS011;14177;51.520;6.764;2024-02-04T04:21:42;11.85;;;7.60;;
26502;SDS011;14177;51.520;6.764;2024-02-04T04:24:09;12.35;;;7.80;;
26502;SDS011;14177;51.520;6.764;2024-02-04T04:26:36;14.95;;;8.48;;
26502;SDS011;14177;51.520;6.764;2024-02-04T04:29:03;13.52;;;8.23;;
26502;SDS011;14177;51.520;6.764;2024-02-04T04:31:30;13.50;;;7.80;;
26502;SDS011;14177;51.520;6.764;2024-02-04T04:33:57;12.02;;;7.00;;
26502;SDS011;14177;51.520;6.764;2024-02-04T04:36:24;14.40;;;7.65;;
26502;SDS011;14177;51.520;6.764;2024-02-04T04:38:51;14.85;;;7.70;;
26502;SDS011;14177;51.520;6.764;2024-02-04T04:41:18;12.40;;;8.00;;
26502;SDS011;14177;51.520;6.764;2024-02-04T04:43:45;13.82;;;7.65;;
26502;SDS011;14177;51.520;6.764;2024-02-04T04:46:12;13.20;;;8.13;;
26502;SDS011;14177;51.520;6.764;2024-02-04T04:48:39;15.55;;;7.45;;
26502;SDS011;14177;51.520;6.764;2024-02-04T04:51:10;15.07;;;7.63;;
26502;SDS011;14177;51.520;6.764;2024-02-04T04:53:38;12.13;;;7.40;;
26502;SDS011;14177;51.520;6.764;2024-02-04T04:56:05;20.25;;;8.23;;
26502;SDS011;14177;51.520;6.764;2024-02-04T04:58:33;13.20;;;7.57;;
26502;SDS011;14177;51.520;6.764;2024-02-04T05:01:01;14.23;;;7.50;;
26502;SDS011;14177;51.520;6.764;2024-02-04T05:03:28;11.57;;;7.45;;
26502;SDS011;14177;51.520;6.764;2024-02-04T05:05:55;13.80;;;7.55;;
26502;SDS011;14177;51.520;6.764;2024-02-04T05:08:22;14.02;;;7.72;;
26502;SDS011;14177;51.520;6.764;2024-02-04T05:10:49;16.40;;;7.40;;
26502;SDS011;14177;51.520;6.764;2024-02-04T05:13:16;11.05;;;6.63;;
26502;SDS011;14177;51.520;6.764;2024-02-04T05:15:43;15.80;;;7.20;;
26502;SDS011;14177;51.520;6.764;2024-02-04T05:18:10;14.18;;;7.15;;
26502;SDS011;14177;51.520;6.764;2024-02-04T05:20:37;14.48;;;7.45;;
26502;SDS011;14177;51.520;6.764;2024-02-04T05:23:04;14.93;;;7.10;;
26502;SDS011;14177;51.520;6.764;2024-02-04T05:25:31;18.23;;;6.38;;
26502;SDS011;14177;51.520;6.764;2024-02-04T05:27:58;12.43;;;6.93;;
26502;SDS011;14177;51.520;6.764;2024-02-04T05:30:25;11.90;;;7.10;;
26502;SDS011;14177;51.520;6.764;2024-02-04T05:32:51;14.48;;;7.22;;
26502;SDS011;14177;51.520;6.764;2024-02-04T05:35:18;12.02;;;7.13;;
26502;SDS011;14177;51.520;6.764;2024-02-04T05:37:45;11.02;;;6.72;;
26502;SDS011;14177;51.520;6.764;2024-02-04T05:40:12;14.50;;;6.97;;
26502;SDS011;14177;51.520;6.764;2024-02-04T05:42:42;11.38;;;6.93;;
26502;SDS011;14177;51.520;6.764;2024-02-04T05:45:09;12.70;;;6.85;;
26502;SDS011;14177;51.520;6.764;2024-02-04T05:47:36;11.63;;;6.45;;
26502;SDS011;14177;51.520;6.764;2024-02-04T05:50:04;15.35;;;7.43;;
26502;SDS011;14177;51.520;6.764;2024-02-04T05:52:32;9.88;;;6.15;;
26502;SDS011;14177;51.520;6.764;2024-02-04T05:54:59;11.75;;;6.88;;
26502;SDS011;14177;51.520;6.764;2024-02-04T05:57:30;13.18;;;6.57;;
26502;SDS011;14177;51.520;6.764;2024-02-04T05:59:57;15.60;;;6.60;;
26502;SDS011;14177;51.520;6.764;2024-02-04T06:02:26;12.02;;;6.78;;
26502;SDS011;14177;51.520;6.764;2024-02-04T06:04:53;14.23;;;6.57;;
26502;SDS011;14177;51.520;6.764;2024-02-04T06:07:21;8.75;;;5.93;;
26502;SDS011;14177;51.520;6.764;2024-02-04T06:09:48;9.70;;;5.82;;
26502;SDS011;14177;51.520;6.764;2024-02-04T06:12:15;19.42;;;6.88;;
26502;SDS011;14177;51.520;6.764;2024-02-04T06:14:42;14.10;;;7.30;;
26502;SDS011;14177;51.520;6.764;2024-02-04T06:17:09;18.38;;;7.68;;
26502;SDS011;14177;51.520;6.764;2024-02-04T06:19:37;17.42;;;8.27;;
26502;SDS011;14177;51.520;6.764;2024-02-04T06:22:04;18.55;;;9.20;;
26502;SDS011;14177;51.520;6.764;2024-02-04T06:24:31;19.98;;;9.27;;
26502;SDS011;14177;51.520;6.764;2024-02-04T06:26:58;16.85;;;9.98;;
26502;SDS011;14177;51.520;6.764;2024-02-04T06:29:25;19.63;;;10.75;;
26502;SDS011;14177;51.520;6.764;2024-02-04T06:31:52;21.63;;;10.95;;
26502;SDS011;14177;51.520;6.764;2024-02-04T06:34:19;23.20;;;11.73;;
26502;SDS011;14177;51.520;6.764;2024-02-04T06:36:46;20.35;;;11.45;;
26502;SDS011;14177;51.520;6.764;2024-02-04T06:39:13;19.80;;;11.30;;
26502;SDS011;14177;51.520;6.764;2024-02-04T06:41:40;22.73;;;11.90;;
26502;SDS011;14177;51.520;6.764;2024-02-04T06:44:07;22.80;;;11.55;;
26502;SDS011;14177;51.520;6.764;2024-02-04T06:46:34;24.35;;;12.88;;
26502;SDS011;14177;51.520;6.764;2024-02-04T06:49:01;20.83;;;12.65;;
26502;SDS011;14177;51.520;6.764;2024-02-04T06:51:28;24.60;;;12.88;;
26502;SDS011;14177;51.520;6.764;2024-02-04T06:53:55;22.55;;;13.32;;
26502;SDS011;14177;51.520;6.764;2024-02-04T06:56:22;25.75;;;13.75;;
26502;SDS011;14177;51.520;6.764;2024-02-04T06:58:49;22.88;;;13.20;;
26502;SDS011;14177;51.520;6.764;2024-02-04T07:01:16;18.73;;;11.32;;
26502;SDS011;14177;51.520;6.764;2024-02-04T07:03:43;24.60;;;12.60;;
26502;SDS011;14177;51.520;6.764;2024-02-04T07:06:10;27.40;;;13.15;;
26502;SDS011;14177;51.520;6.764;2024-02-04T07:08:37;23.13;;;12.35;;
26502;SDS011;14177;51.520;6.764;2024-02-04T07:11:04;21.08;;;10.38;;
26502;SDS011;14177;51.520;6.764;2024-02-04T07:13:31;20.30;;;11.32;;
26502;SDS011;14177;51.520;6.764;2024-02-04T07:15:58;21.00;;;10.45;;
26502;SDS011;14177;51.520;6.764;2024-02-04T07:18:25;19.02;;;10.85;;
26502;SDS011;14177;51.520;6.764;2024-02-04T07:20:53;21.35;;;11.43;;
26502;SDS011;14177;51.520;6.764;2024-02-04T07:23:20;22.55;;;10.63;;
26502;SDS011;14177;51.520;6.764;2024-02-04T07:25:48;20.33;;;10.63;;
26502;SDS011;14177;51.520;6.764;2024-02-04T07:28:15;22.08;;;10.43;;
26502;SDS011;14177;51.520;6.764;2024-02-04T07:30:42;18.45;;;9.93;;
26502;SDS011;14177;51.520;6.764;2024-02-04T07:33:09;19.67;;;10.23;;
26502;SDS011;14177;51.520;6.764;2024-02-04T07:35:36;21.33;;;9.50;;
26502;SDS011;14177;51.520;6.764;2024-02-04T07:38:03;14.30;;;8.88;;
26502;SDS011;14177;51.520;6.764;2024-02-04T07:40:30;18.30;;;9.68;;
26502;SDS011;14177;51.520;6.764;2024-02-04T07:42:57;16.27;;;8.93;;
26502;SDS011;14177;51.520;6.764;2024-02-04T07:45:24;21.08;;;8.82;;
26502;SDS011;14177;51.520;6.764;2024-02-04T07:47:51;15.18;;;8.02;;
26502;SDS011;14177;51.520;6.764;2024-02-04T07:50:18;13.73;;;8.48;;
26502;SDS011;14177;51.520;6.764;2024-02-04T07:52:45;17.80;;;7.97;;
26502;SDS011;14177;51.520;6.764;2024-02-04T07:55:12;12.10;;;7.15;;
26502;SDS011;14177;51.520;6.764;2024-02-04T07:57:40;13.50;;;7.05;;
26502;SDS011;14177;51.520;6.764;2024-02-04T08:00:07;11.18;;;5.60;;
26502;SDS011;14177;51.520;6.764;2024-02-04T08:02:39;9.35;;;5.25;;
26502;SDS011;14177;51.520;6.764;2024-02-04T08:05:06;13.18;;;5.88;;
26502;SDS011;14177;51.520;6.764;2024-02-04T08:07:34;10.10;;;5.20;;
26502;SDS011;14177;51.520;6.764;2024-02-04T08:10:01;12.88;;;5.53;;
26502;SDS011;14177;51.520;6.764;2024-02-04T08:12:28;14.73;;;6.80;;
26502;SDS011;14177;51.520;6.764;2024-02-04T08:14:55;8.05;;;3.85;;
26502;SDS011;14177;51.520;6.764;2024-02-04T08:17:22;22.50;;;10.63;;
26502;SDS011;14177;51.520;6.764;2024-02-04T08:19:49;9.65;;;4.55;;
26502;SDS011;14177;51.520;6.764;2024-02-04T08:22:16;6.03;;;3.60;;
26502;SDS011;14177;51.520;6.764;2024-02-04T08:24:45;6.22;;;3.63;;
26502;SDS011;14177;51.520;6.764;2024-02-04T08:27:13;5.35;;;4.00;;
26502;SDS011;14177;51.520;6.764;2024-02-04T08:29:44;8.02;;;4.40;;
26502;SDS011;14177;51.520;6.764;2024-02-04T08:32:11;9.15;;;4.57;;
26502;SDS011;14177;51.520;6.764;2024-02-04T08:34:39;7.88;;;4.70;;
26502;SDS011;14177;51.520;6.764;2024-02-04T08:37:06;10.80;;;4.85;;
26502;SDS011;14177;51.520;6.764;2024-02-04T08:39:33;6.78;;;4.53;;
26502;SDS011;14177;51.520;6.764;2024-02-04T08:42:00;7.85;;;4.95;;
26502;SDS011;14177;51.520;6.764;2024-02-04T08:44:27;10.00;;;4.78;;
26502;SDS011;14177;51.520;6.764;2024-02-04T08:47:05;9.05;;;4.70;;
26502;SDS011;14177;51.520;6.764;2024-02-04T08:49:32;6.95;;;4.13;;
26502;SDS011;14177;51.520;6.764;2024-02-04T08:51:59;6.18;;;4.22;;
26502;SDS011;14177;51.520;6.764;2024-02-04T08:54:26;6.75;;;4.20;;
26502;SDS011;14177;51.520;6.764;2024-02-04T08:56:53;8.70;;;4.40;;
26502;SDS011;14177;51.520;6.764;2024-02-04T08:59:20;7.53;;;4.65;;
26502;SDS011;14177;51.520;6.764;2024-02-04T09:01:47;6.35;;;4.30;;
26502;SDS011;14177;51.520;6.764;2024-02-04T09:04:14;9.13;;;5.63;;
26502;SDS011;14177;51.520;6.764;2024-02-04T09:06:41;11.00;;;5.25;;
26502;SDS011;14177;51.520;6.764;2024-02-04T09:09:08;9.88;;;5.93;;
26502;SDS011;14177;51.520;6.764;2024-02-04T09:11:35;9.25;;;6.03;;
26502;SDS011;14177;51.520;6.764;2024-02-04T09:14:02;11.05;;;5.97;;
26502;SDS011;14177;51.520;6.764;2024-02-04T09:16:30;14.30;;;6.72;;
26502;SDS011;14177;51.520;6.764;2024-02-04T09:18:57;10.35;;;6.40;;
26502;SDS011;14177;51.520;6.764;2024-02-04T09:21:24;12.55;;;6.80;;
26502;SDS011;14177;51.520;6.764;2024-02-04T09:23:52;12.50;;;7.10;;
26502;SDS011;14177;51.520;6.764;2024-02-04T09:26:19;12.50;;;7.43;;
26502;SDS011;14177;51.520;6.764;2024-02-04T09:28:46;12.60;;;7.05;;
26502;SDS011;14177;51.520;6.764;2024-02-04T09:31:14;12.10;;;7.25;;
26502;SDS011;14177;51.520;6.764;2024-02-04T09:33:41;14.35;;;6.40;;
26502;SDS011;14177;51.520;6.764;2024-02-04T09:36:08;11.20;;;6.72;;
26502;SDS011;14177;51.520;6.764;2024-02-04T09:38:36;11.20;;;6.88;;
26502;SDS011;14177;51.520;6.764;2024-02-04T09:41:03;11.57;;;6.82;;
26502;SDS011;14177;51.520;6.764;2024-02-04T09:43:31;11.40;;;6.93;;
26502;SDS011;14177;51.520;6.764;2024-02-04T09:46:00;10.13;;;6.43;;
26502;SDS011;14177;51.520;6.764;2024-02-04T09:48:32;12.70;;;5.47;;
26502;SDS011;14177;51.520;6.764;2024-02-04T09:51:00;11.75;;;5.70;;
26502;SDS011;14177;51.520;6.764;2024-02-04T09:53:31;10.73;;;5.85;;
26502;SDS011;14177;51.520;6.764;2024-02-04T09:56:04;8.52;;;4.82;;
26502;SDS011;14177;51.520;6.764;2024-02-04T09:58:40;14.38;;;5.57;;
26502;SDS011;14177;51.520;6.764;2024-02-04T10:01:39;8.23;;;5.18;;
26502;SDS011;14177;51.520;6.764;2024-02-04T10:18:29;9.35;;;4.82;;
26502;SDS011;14177;51.520;6.764;2024-02-04T10:22:51;9.40;;;5.68;;
26502;SDS011;14177;51.520;6.764;2024-02-04T10:26:59;12.35;;;5.82;;
26502;SDS011;14177;51.520;6.764;2024-02-04T10:29:46;13.52;;;6.22;;
26502;SDS011;14177;51.520;6.764;2024-02-04T10:33:37;9.60;;;6.95;;
26502;SDS011;14177;51.520;6.764;2024-02-04T10:36:28;9.85;;;5.97;;
26502;SDS011;14177;51.520;6.764;2024-02-04T10:39:42;12.68;;;6.03;;
26502;SDS011;14177;51.520;6.764;2024-02-04T10:43:05;8.30;;;5.15;;
26502;SDS011;14177;51.520;6.764;2024-02-04T10:45:35;10.35;;;5.90;;
26502;SDS011;14177;51.520;6.764;2024-02-04T10:48:06;12.93;;;5.95;;
26502;SDS011;14177;51.520;6.764;2024-02-04T10:50:34;8.25;;;5.43;;
26502;SDS011;14177;51.520;6.764;2024-02-04T10:53:05;13.35;;;5.88;;
26502;SDS011;14177;51.520;6.764;2024-02-04T10:55:37;9.60;;;5.07;;
26502;SDS011;14177;51.520;6.764;2024-02-04T10:58:09;8.40;;;4.82;;
26502;SDS011;14177;51.520;6.764;2024-02-04T11:00:43;10.02;;;4.85;;
26502;SDS011;14177;51.520;6.764;2024-02-04T11:03:11;9.80;;;5.43;;
26502;SDS011;14177;51.520;6.764;2024-02-04T11:05:40;15.35;;;5.13;;
26502;SDS011;14177;51.520;6.764;2024-02-04T11:08:09;7.22;;;4.38;;
26502;SDS011;14177;51.520;6.764;2024-02-04T11:10:38;6.00;;;3.67;;
26502;SDS011;14177;51.520;6.764;2024-02-04T11:13:06;7.60;;;3.20;;
26502;SDS011;14177;51.520;6.764;2024-02-04T11:15:36;6.72;;;3.00;;
26502;SDS011;14177;51.520;6.764;2024-02-04T11:27:08;3.92;;;2.45;;
26502;SDS011;14177;51.520;6.764;2024-02-04T11:29:36;2.95;;;1.92;;
26502;SDS011;14177;51.520;6.764;2024-02-04T11:32:05;4.40;;;1.98;;
26502;SDS011;14177;51.520;6.764;2024-02-04T11:34:33;4.05;;;2.72;;
26502;SDS011;14177;51.520;6.764;2024-02-04T11:37:01;4.05;;;2.30;;
26502;SDS011;14177;51.520;6.764;2024-02-04T11:39:28;3.40;;;2.10;;
26502;SDS011;14177;51.520;6.764;2024-02-04T11:41:55;4.70;;;2.40;;
26502;SDS011;14177;51.520;6.764;2024-02-04T11:44:26;2.67;;;2.10;;
26502;SDS011;14177;51.520;6.764;2024-02-04T11:46:54;4.45;;;2.15;;
26502;SDS011;14177;51.520;6.764;2024-02-04T11:49:24;3.22;;;2.10;;
26502;SDS011;14177;51.520;6.764;2024-02-04T11:51:52;4.45;;;2.33;;
26502;SDS011;14177;51.520;6.764;2024-02-04T11:54:20;3.22;;;2.33;;
26502;SDS011;14177;51.520;6.764;2024-02-04T11:56:48;4.28;;;2.63;;
26502;SDS011;14177;51.520;6.764;2024-02-04T11:59:20;3.67;;;2.10;;
26502;SDS011;14177;51.520;6.764;2024-02-04T12:01:53;3.67;;;2.10;;
26502;SDS011;14177;51.520;6.764;2024-02-04T12:04:22;3.83;;;2.28;;
26502;SDS011;14177;51.520;6.764;2024-02-04T12:06:50;2.58;;;2.10;;
26502;SDS011;14177;51.520;6.764;2024-02-04T12:09:17;4.47;;;2.53;;
26502;SDS011;14177;51.520;6.764;2024-02-04T12:11:46;3.72;;;2.65;;
26502;SDS011;14177;51.520;6.764;2024-02-04T12:14:14;4.13;;;3.10;;
26502;SDS011;14177;51.520;6.764;2024-02-04T12:16:43;4.00;;;2.80;;
26502;SDS011;14177;51.520;6.764;2024-02-04T12:19:11;5.55;;;3.00;;
26502;SDS011;14177;51.520;6.764;2024-02-04T12:21:38;4.25;;;2.80;;
26502;SDS011;14177;51.520;6.764;2024-02-04T12:24:06;4.13;;;2.50;;
26502;SDS011;14177;51.520;6.764;2024-02-04T12:26:34;5.15;;;2.92;;
26502;SDS011;14177;51.520;6.764;2024-02-04T12:29:02;5.40;;;2.78;;
26502;SDS011;14177;51.520;6.764;2024-02-04T12:31:29;4.13;;;2.72;;
26502;SDS011;14177;51.520;6.764;2024-02-04T12:33:58;3.95;;;2.35;;
26502;SDS011;14177;51.520;6.764;2024-02-04T12:36:30;4.45;;;3.05;;
26502;SDS011;14177;51.520;6.764;2024-02-04T12:38:59;6.07;;;3.30;;
26502;SDS011;14177;51.520;6.764;2024-02-04T12:41:28;5.78;;;3.40;;
26502;SDS011;14177;51.520;6.764;2024-02-04T12:43:59;9.05;;;3.47;;
26502;SDS011;14177;51.520;6.764;2024-02-04T12:46:26;7.28;;;3.08;;
26502;SDS011;14177;51.520;6.764;2024-02-04T12:48:54;4.10;;;3.08;;
26502;SDS011;14177;51.520;6.764;2024-02-04T12:51:30;4.43;;;3.17;;
26502;SDS011;14177;51.520;6.764;2024-02-04T12:59:29;5.30;;;2.95;;
26502;SDS011;14177;51.520;6.764;2024-02-04T13:02:01;4.25;;;2.90;;
26502;SDS011;14177;51.520;6.764;2024-02-04T13:04:33;6.90;;;3.47;;
26502;SDS011;14177;51.520;6.764;2024-02-04T13:07:10;4.93;;;2.50;;
26502;SDS011;14177;51.520;6.764;2024-02-04T13:09:45;4.40;;;2.70;;
26502;SDS011;14177;51.520;6.764;2024-02-04T13:12:14;4.90;;;2.80;;
26502;SDS011;14177;51.520;6.764;2024-02-04T13:14:43;3.70;;;3.00;;
26502;SDS011;14177;51.520;6.764;2024-02-04T13:17:11;6.68;;;3.42;;
26502;SDS011;14177;51.520;6.764;2024-02-04T13:19:38;4.53;;;2.97;;
26502;SDS011;14177;51.520;6.764;2024-02-04T13:22:06;4.15;;;2.67;;
26502;SDS011;14177;51.520;6.764;2024-02-04T13:24:36;6.07;;;2.85;;
26502;SDS011;14177;51.520;6.764;2024-02-04T13:27:03;4.78;;;2.92;;
26502;SDS011;14177;51.520;6.764;2024-02-04T13:29:34;6.75;;;2.97;;
26502;SDS011;14177;51.520;6.764;2024-02-04T13:32:01;3.75;;;2.63;;
26502;SDS011;14177;51.520;6.764;2024-02-04T13:34:28;6.55;;;3.03;;
26502;SDS011;14177;51.520;6.764;2024-02-04T13:36:55;5.93;;;3.42;;
26502;SDS011;14177;51.520;6.764;2024-02-04T13:39:22;5.43;;;3.05;;
26502;SDS011;14177;51.520;6.764;2024-02-04T13:41:49;4.80;;;3.28;;
26502;SDS011;14177;51.520;6.764;2024-02-04T13:44:16;4.72;;;3.33;;
26502;SDS011;14177;51.520;6.764;2024-02-04T13:46:43;5.95;;;3.30;;
26502;SDS011;14177;51.520;6.764;2024-02-04T13:49:10;4.28;;;3.28;;
26502;SDS011;14177;51.520;6.764;2024-02-04T13:51:39;4.97;;;3.35;;
26502;SDS011;14177;51.520;6.764;2024-02-04T13:54:11;5.53;;;3.50;;
26502;SDS011;14177;51.520;6.764;2024-02-04T13:56:43;4.60;;;3.67;;
26502;SDS011;14177;51.520;6.764;2024-02-04T13:59:12;6.47;;;3.38;;
26502;SDS011;14177;51.520;6.764;2024-02-04T14:01:39;4.25;;;3.70;;
26502;SDS011;14177;51.520;6.764;2024-02-04T14:04:07;4.95;;;3.72;;
26502;SDS011;14177;51.520;6.764;2024-02-04T14:06:35;5.78;;;3.95;;
26502;SDS011;14177;51.520;6.764;2024-02-04T14:09:03;7.32;;;4.20;;
26502;SDS011;14177;51.520;6.764;2024-02-04T14:11:31;6.07;;;3.80;;
26502;SDS011;14177;51.520;6.764;2024-02-04T14:13:58;4.75;;;3.55;;
26502;SDS011;14177;51.520;6.764;2024-02-04T14:16:25;5.13;;;3.42;;
26502;SDS011;14177;51.520;6.764;2024-02-04T14:18:52;5.20;;;3.38;;
26502;SDS011;14177;51.520;6.764;2024-02-04T14:21:23;7.53;;;4.35;;
26502;SDS011;14177;51.520;6.764;2024-02-04T14:23:50;5.90;;;3.72;;
26502;SDS011;14177;51.520;6.764;2024-02-04T14:26:18;5.80;;;4.38;;
26502;SDS011;14177;51.520;6.764;2024-02-04T14:28:46;7.05;;;4.78;;
26502;SDS011;14177;51.520;6.764;2024-02-04T14:31:14;9.15;;;4.75;;
26502;SDS011;14177;51.520;6.764;2024-02-04T14:33:42;6.88;;;4.75;;
26502;SDS011;14177;51.520;6.764;2024-02-04T14:36:10;10.23;;;5.30;;
26502;SDS011;14177;51.520;6.764;2024-02-04T14:38:37;8.88;;;5.35;;
26502;SDS011;14177;51.520;6.764;2024-02-04T14:41:05;11.57;;;5.88;;
26502;SDS011;14177;51.520;6.764;2024-02-04T14:43:33;10.20;;;5.28;;
26502;SDS011;14177;51.520;6.764;2024-02-04T14:46:01;8.60;;;5.18;;
26502;SDS011;14177;51.520;6.764;2024-02-04T14:48:28;10.65;;;4.70;;
26502;SDS011;14177;51.520;6.764;2024-02-04T14:50:56;8.52;;;5.25;;
26502;SDS011;14177;51.520;6.764;2024-02-04T14:53:24;6.05;;;4.90;;
26502;SDS011;14177;51.520;6.764;2024-02-04T14:55:52;9.07;;;5.38;;
26502;SDS011;14177;51.520;6.764;2024-02-04T14:58:19;10.18;;;5.60;;
26502;SDS011;14177;51.520;6.764;2024-02-04T15:00:47;10.63;;;4.63;;
26502;SDS011;14177;51.520;6.764;2024-02-04T15:03:14;7.40;;;4.97;;
26502;SDS011;14177;51.520;6.764;2024-02-04T15:05:41;8.63;;;5.03;;
26502;SDS011;14177;51.520;6.764;2024-02-04T15:08:09;8.30;;;5.03;;
26502;SDS011;14177;51.520;6.764;2024-02-04T15:10:36;8.95;;;4.88;;
26502;SDS011;14177;51.520;6.764;2024-02-04T15:13:04;10.27;;;4.72;;
26502;SDS011;14177;51.520;6.764;2024-02-04T15:15:32;8.13;;;4.78;;
26502;SDS011;14177;51.520;6.764;2024-02-04T15:17:59;9.50;;;5.00;;
26502;SDS011;14177;51.520;6.764;2024-02-04T15:20:27;7.57;;;4.25;;
26502;SDS011;14177;51.520;6.764;2024-02-04T15:22:57;11.05;;;4.65;;
26502;SDS011;14177;51.520;6.764;2024-02-04T15:25:27;14.48;;;5.47;;